createdAt,value
2018-11-26T00:00:36.107Z,99372.86
2018-11-26T00:05:54.768Z,99375.98
2018-11-26T00:11:24.559Z,99375.52
2018-11-26T00:16:43.294Z,99373.05
2018-11-26T00:22:01.882Z,99366.78
2018-11-26T00:27:20.480Z,99363.33
2018-11-26T00:32:39.039Z,99358.77
2018-11-26T00:37:57.684Z,99354.36
2018-11-26T00:43:16.228Z,99346.83
2018-11-26T00:48:34.749Z,99350.09
2018-11-26T00:53:53.300Z,99354.03
2018-11-26T00:59:11.961Z,99350.28
2018-11-26T01:04:30.603Z,99343.02
2018-11-26T01:09:49.207Z,99336.92
2018-11-26T01:15:08.095Z,99336.45
2018-11-26T01:20:26.749Z,99345.68
2018-11-26T01:25:45.459Z,99345.52
2018-11-26T01:31:03.948Z,99343.66
2018-11-26T01:36:22.568Z,99346.02
2018-11-26T01:41:41.123Z,99352.46
2018-11-26T01:46:59.659Z,99340.89
2018-11-26T01:52:18.190Z,99351.70
2018-11-26T01:57:36.812Z,99349.27
2018-11-26T02:02:55.537Z,99340.92
2018-11-26T02:08:14.172Z,99345.87
2018-11-26T02:13:32.727Z,99351.89
2018-11-26T02:18:51.473Z,99355.67
2018-11-26T02:24:09.983Z,99350.03
2018-11-26T02:29:28.674Z,99348.88
2018-11-26T02:34:47.297Z,99341.68
2018-11-26T02:40:08.110Z,99341.45
2018-11-26T02:45:27.064Z,99350.06
2018-11-26T02:50:45.580Z,99344.41
2018-11-26T02:56:04.111Z,99341.33
2018-11-26T03:01:22.717Z,99343.36
2018-11-26T03:06:41.240Z,99342.50
2018-11-26T03:11:59.925Z,99333.08
2018-11-26T03:17:18.472Z,99331.14
2018-11-26T03:22:37.141Z,99334.56
2018-11-26T03:27:55.796Z,99337.41
2018-11-26T03:33:14.359Z,99342.83
2018-11-26T03:38:44.479Z,99344.80
2018-11-26T03:44:03.011Z,99346.28
2018-11-26T03:49:21.587Z,99352.84
2018-11-26T03:54:40.143Z,99350.39
2018-11-26T03:59:58.728Z,99352.03
2018-11-26T04:05:17.929Z,99361.36
2018-11-26T04:10:36.463Z,99358.30
2018-11-26T04:15:55.031Z,99362.21
2018-11-26T04:21:13.541Z,99362.87
2018-11-26T04:26:32.064Z,99362.84
2018-11-26T04:31:50.640Z,99364.08
2018-11-26T04:37:09.149Z,99355.70
2018-11-26T04:42:27.666Z,99354.38
2018-11-26T04:47:46.209Z,99359.64
2018-11-26T04:53:04.872Z,99347.44
2018-11-26T04:58:23.448Z,99353.30
2018-11-26T05:03:42.006Z,99346.72
2018-11-26T05:09:00.715Z,99342.81
2018-11-26T05:14:19.252Z,99343.63
2018-11-26T05:19:37.831Z,99342.92
2018-11-26T05:24:56.365Z,99335.53
2018-11-26T05:30:15.052Z,99346.78
2018-11-26T05:35:33.827Z,99340.02
2018-11-26T05:40:52.429Z,99340.16
2018-11-26T05:46:11.138Z,99349.41
2018-11-26T05:51:29.715Z,99349.55
2018-11-26T05:56:48.225Z,99353.92
2018-11-26T06:02:06.868Z,99338.44
2018-11-26T06:07:25.468Z,99347.23
2018-11-26T06:12:44.042Z,99351.92
2018-11-26T06:18:02.579Z,99350.98
2018-11-26T06:23:21.290Z,99359.25
2018-11-26T06:28:39.943Z,99357.64
2018-11-26T06:33:58.478Z,99364.72
2018-11-26T06:39:17.043Z,99372.55
2018-11-26T06:44:35.559Z,99371.76
2018-11-26T06:49:54.228Z,99379.85
2018-11-26T06:55:15.136Z,99381.19
2018-11-26T07:00:33.739Z,99387.27
2018-11-26T07:05:52.384Z,99395.80
2018-11-26T07:11:10.943Z,99401.98
2018-11-26T07:16:29.456Z,99406.96
2018-11-26T07:21:47.968Z,99413.31
2018-11-26T07:27:06.873Z,99417.04
2018-11-26T07:32:25.389Z,99425.91
2018-11-26T07:37:44.024Z,99428.02
2018-11-26T07:43:09.947Z,99423.56
2018-11-26T07:48:28.629Z,99436.54
2018-11-26T07:53:47.220Z,99450.34
2018-11-26T07:59:05.764Z,99447.89
2018-11-26T08:04:24.307Z,99451.03
2018-11-26T08:09:42.823Z,99456.64
2018-11-26T08:15:01.393Z,99460.16
2018-11-26T08:20:19.964Z,99471.94
2018-11-26T08:25:38.700Z,99473.56
2018-11-26T08:30:57.299Z,99467.95
2018-11-26T08:36:16.087Z,99474.69
2018-11-26T08:41:36.713Z,99482.38
2018-11-26T08:47:00.929Z,99494.82
2018-11-26T08:52:20.413Z,99494.09
2018-11-26T08:57:39.024Z,99501.93
2018-11-26T09:03:04.007Z,99496.83
2018-11-26T09:08:22.611Z,99503.02
2018-11-26T09:13:41.300Z,99502.02
2018-11-26T09:18:59.867Z,99507.36
2018-11-26T09:24:18.376Z,99518.02
2018-11-26T09:29:36.931Z,99519.44
2018-11-26T09:34:55.483Z,99523.94
2018-11-26T09:40:15.267Z,99528.97
2018-11-26T09:45:40.089Z,99542.09
2018-11-26T09:50:52.358Z,99545.08
2018-11-26T09:56:10.940Z,99551.11
2018-11-26T10:01:29.556Z,99551.49
2018-11-26T10:06:48.075Z,99550.97
2018-11-26T10:12:06.615Z,99555.41
2018-11-26T10:17:25.208Z,99542.70
2018-11-26T10:22:44.274Z,99547.33
2018-11-26T10:28:02.945Z,99546.78
2018-11-26T10:33:21.527Z,99543.69
2018-11-26T10:38:40.116Z,99547.55
2018-11-26T10:43:58.690Z,99545.73
2018-11-26T10:49:17.181Z,99550.04
2018-11-26T10:54:35.812Z,99551.59
2018-11-26T10:59:54.427Z,99549.59
2018-11-26T11:05:12.991Z,99552.48
2018-11-26T11:10:32.873Z,99557.75
2018-11-26T11:15:51.457Z,99564.49
2018-11-26T11:21:09.989Z,99564.14
2018-11-26T11:26:28.552Z,99569.10
2018-11-26T11:31:47.145Z,99572.02
2018-11-26T11:37:05.823Z,99569.98
2018-11-26T11:42:24.364Z,99570.06
2018-11-26T11:47:42.967Z,99568.94
2018-11-26T11:53:01.481Z,99556.77
2018-11-26T11:58:20.014Z,99557.06
2018-11-26T12:03:38.594Z,99551.53
2018-11-26T12:08:57.409Z,99543.41
2018-11-26T12:14:17.250Z,99552.88
2018-11-26T12:19:35.921Z,99553.73
2018-11-26T12:24:54.524Z,99559.59
2018-11-26T12:30:15.557Z,99558.05
2018-11-26T12:35:34.384Z,99554.42
2018-11-26T12:40:52.872Z,99555.72
2018-11-26T12:46:11.475Z,99558.94
2018-11-26T12:51:29.984Z,99558.44
2018-11-26T12:56:48.581Z,99563.14
2018-11-26T13:02:07.546Z,99557.57
2018-11-26T13:07:26.113Z,99565.47
2018-11-26T13:12:45.078Z,99563.50
2018-11-26T13:18:03.680Z,99555.02
2018-11-26T13:23:22.235Z,99558.70
2018-11-26T13:28:40.784Z,99556.27
2018-11-26T13:33:59.353Z,99563.55
2018-11-26T13:39:18.026Z,99575.36
2018-11-26T13:44:36.614Z,99574.44
2018-11-26T13:49:55.168Z,99572.00
2018-11-26T13:55:13.736Z,99586.78
2018-11-26T14:00:32.423Z,99584.77
2018-11-26T14:05:51.142Z,99579.04
2018-11-26T14:11:09.786Z,99582.36
2018-11-26T14:16:28.378Z,99586.78
2018-11-26T14:21:47.195Z,99588.13
2018-11-26T14:27:06.250Z,99601.08
2018-11-26T14:32:24.815Z,99602.77
2018-11-26T14:37:43.507Z,99604.97
2018-11-26T14:43:02.047Z,99608.12
2018-11-26T14:48:20.560Z,99615.27
2018-11-26T14:53:39.115Z,99617.72
2018-11-26T14:58:57.879Z,99624.14
2018-11-26T15:04:16.766Z,99629.80
2018-11-26T15:09:35.375Z,99634.42
2018-11-26T15:14:53.958Z,99632.62
2018-11-26T15:20:14.099Z,99633.19
2018-11-26T15:25:34.321Z,99645.87
2018-11-26T15:30:53.226Z,99647.03
2018-11-26T15:36:11.822Z,99640.12
2018-11-26T15:41:30.373Z,99656.43
2018-11-26T15:46:48.965Z,99658.37
2018-11-26T15:52:07.537Z,99662.77
2018-11-26T15:57:26.117Z,99653.38
2018-11-26T16:02:44.797Z,99661.38
2018-11-26T16:08:05.426Z,99672.20
2018-11-26T16:13:24.068Z,99671.59
2018-11-26T16:18:42.614Z,99677.50
2018-11-26T16:24:01.195Z,99686.39
2018-11-26T16:29:19.769Z,99687.05
2018-11-26T16:34:38.362Z,99682.13
2018-11-26T16:39:56.936Z,99691.38
2018-11-26T16:45:17.960Z,99681.79
2018-11-26T16:50:37.384Z,99691.47
2018-11-26T16:55:56.013Z,99695.95
2018-11-26T17:01:14.632Z,99696.59
2018-11-26T17:06:33.190Z,99708.61
2018-11-26T17:11:51.751Z,99718.30
2018-11-26T17:17:10.334Z,99723.74
2018-11-26T17:22:28.923Z,99722.77
2018-11-26T17:27:47.726Z,99732.59
2018-11-26T17:33:08.166Z,99741.30
2018-11-26T17:38:26.723Z,99744.27
2018-11-26T17:43:45.219Z,99749.36
2018-11-26T17:49:03.774Z,99753.63
2018-11-26T17:54:22.406Z,99756.27
2018-11-26T17:59:41.440Z,99763.65
2018-11-26T18:04:59.957Z,99768.08
2018-11-26T18:10:19.648Z,99766.10
2018-11-26T18:15:38.191Z,99761.34
2018-11-26T18:20:56.736Z,99775.09
2018-11-26T18:26:15.663Z,99779.22
2018-11-26T18:31:35.068Z,99781.85
2018-11-26T18:36:53.686Z,99792.02
2018-11-26T18:42:12.335Z,99799.89
2018-11-26T18:47:31.227Z,99808.25
2018-11-26T18:52:50.522Z,99814.80
2018-11-26T18:58:09.153Z,99821.20
2018-11-26T19:03:27.714Z,99816.78
2018-11-26T19:08:46.336Z,99824.66
2018-11-26T19:14:12.014Z,99830.23
2018-11-26T19:19:30.629Z,99845.16
2018-11-26T19:24:49.214Z,99844.47
2018-11-26T19:30:10.593Z,99843.95
2018-11-26T19:35:29.081Z,99846.52
2018-11-26T19:40:47.725Z,99856.20
2018-11-26T19:46:06.829Z,99854.22
2018-11-26T19:51:25.475Z,99861.61
2018-11-26T19:56:44.058Z,99865.86
2018-11-26T20:02:03.037Z,99866.00
2018-11-26T20:07:21.784Z,99874.81
2018-11-26T20:12:40.511Z,99872.34
2018-11-26T20:17:59.257Z,99878.87
2018-11-26T20:23:17.899Z,99882.44
2018-11-26T20:28:36.446Z,99891.95
2018-11-26T20:33:54.961Z,99897.03
2018-11-26T20:39:13.513Z,99905.24
2018-11-26T20:44:32.115Z,99897.66
2018-11-26T20:49:50.731Z,99900.77
2018-11-26T20:55:11.835Z,99903.25
2018-11-26T21:00:30.415Z,99899.73
2018-11-26T21:05:48.945Z,99904.95
2018-11-26T21:11:07.633Z,99902.84
2018-11-26T21:16:26.194Z,99905.39
2018-11-26T21:21:44.846Z,99910.13
2018-11-26T21:27:03.472Z,99908.87
2018-11-26T21:32:22.091Z,99911.84
2018-11-26T21:37:41.708Z,99919.50
2018-11-26T21:43:00.688Z,99921.88
2018-11-26T21:48:18.928Z,99922.95
2018-11-26T21:53:37.723Z,99928.78
2018-11-26T21:58:56.288Z,99931.05
2018-11-26T22:04:14.934Z,99931.98
2018-11-26T22:09:33.490Z,99937.53
2018-11-26T22:14:51.987Z,99950.02
2018-11-26T22:20:31.930Z,99947.39
2018-11-26T22:25:50.487Z,99953.13
2018-11-26T22:31:09.082Z,99954.30
2018-11-26T22:36:27.574Z,99960.67
2018-11-26T22:41:46.116Z,99963.23
2018-11-26T22:47:04.692Z,99970.13
2018-11-26T22:52:23.332Z,99970.00
2018-11-26T22:57:42.293Z,99974.62
2018-11-26T23:03:01.325Z,99966.20
2018-11-26T23:08:19.850Z,99972.27
2018-11-26T23:13:38.616Z,99979.09
2018-11-26T23:18:57.129Z,99978.32
2018-11-26T23:24:15.687Z,99981.37
2018-11-26T23:29:34.520Z,99978.41
2018-11-26T23:34:53.075Z,99992.95
2018-11-26T23:40:12.681Z,99999.71
2018-11-26T23:45:31.204Z,99997.66
2018-11-26T23:50:49.806Z,99996.92
2018-11-26T23:56:08.532Z,100004.22
